Terminal Aerodrome Forecast
Issued by NWS

Home | Current Version | Previous Version | Text Only | Print | Product List | Glossary On
Versions: 1 2 3 4 5 6 7 8 9 10 11 12 13 14 15 16 17 18 19 20 21 22 23 24 25 26 27 28
000
FTUS41 KBUF 030800 AAA
TAFIAG
TAF AMD
KIAG 030857Z 0309/0406 VRB03KT P6SM SCT250
     FM031300 15004KT P6SM BKN120
     FM031500 13005KT P6SM OVC070
     FM031800 14008KT P6SM OVC040
     FM032000 15009KT 2SM -SN OVC035
     FM032100 15010G21KT 2SM -SNPL OVC030
     FM032300 17012G22KT 6SM -FZRA OVC025
     FM040100 19014G27KT 6SM -RA OVC015=

USA.gov is the U.S. government's official web portal to all federal, state and local government web resources and services.